SAZM 020500Z 29006KT CAVOK 10/09 Q1020 RMK PP///
From batch tds/metars/production/2022/10/2/h05_m24_metars.cache.csv.gz
Observed at (about 1 hour ago)
Identifier SAZM
SAZM 020400Z 31009KT CAVOK 11/11 Q1021 RMK PP///
From batch tds/metars/production/2022/10/2/h04_m25_metars.cache.csv.gz
Observed at (about 2 hours ago)
Identifier SAZM
SAZM 020300Z 31007KT CAVOK 13/11 Q1021 RMK PP///
From batch tds/metars/production/2022/10/2/h03_m29_metars.cache.csv.gz
Observed at (about 3 hours ago)
Identifier SAZM
SAZM 020200Z 35006KT CAVOK 14/12 Q1020 RMK PP///
From batch tds/metars/production/2022/10/2/h02_m29_metars.cache.csv.gz
Observed at (about 4 hours ago)
Identifier SAZM
SAZM 020100Z 36008KT CAVOK 14/11 Q1020 RMK PP///
From batch tds/metars/production/2022/10/2/h01_m29_metars.cache.csv.gz
Observed at (about 5 hours ago)
Identifier SAZM
SAZM 020000Z 02006KT CAVOK 14/11 Q1020 RMK PP///
From batch tds/metars/production/2022/10/2/h00_m21_metars.cache.csv.gz
Observed at (about 6 hours ago)
Identifier SAZM
SAZM 012300Z 03006KT CAVOK 14/12 Q1020 RMK PP///
From batch tds/metars/production/2022/10/1/h23_m23_metars.cache.csv.gz
Observed at (about 7 hours ago)
Identifier SAZM
SAZM 012200Z 05010KT CAVOK 15/11 Q1020 RMK PP///
From batch tds/metars/production/2022/10/1/h22_m22_metars.cache.csv.gz
Observed at (about 8 hours ago)
Identifier SAZM
SAZM 012100Z 05013KT CAVOK 16/08 Q1019 RMK PP///
From batch tds/metars/production/2022/10/1/h21_m29_metars.cache.csv.gz
Observed at (about 9 hours ago)
Identifier SAZM
SAZM 012000Z 05014KT CAVOK 19/08 Q1019 RMK PP///
From batch tds/metars/production/2022/10/1/h20_m27_metars.cache.csv.gz
Observed at (about 10 hours ago)
Identifier SAZM
SAZM 011900Z 06012KT CAVOK 20/08 Q1020 RMK PP///
From batch tds/metars/production/2022/10/1/h19_m26_metars.cache.csv.gz
Observed at (about 11 hours ago)
Identifier SAZM
SAZM 011800Z 07010KT CAVOK 20/09 Q1020 RMK PP///
From batch tds/metars/production/2022/10/1/h18_m22_metars.cache.csv.gz
Observed at (about 12 hours ago)
Identifier SAZM
SAZM 011713Z 07011KT CAVOK 20/09 Q1020
From batch tds/metars/production/2022/10/1/h17_m24_metars.cache.csv.gz
Observed at (about 13 hours ago)
Identifier SAZM
SAZM 011600Z VRB04KT CAVOK 21/08 Q1021 RMK PP///
From batch tds/metars/production/2022/10/1/h16_m29_metars.cache.csv.gz
Observed at (about 14 hours ago)
Identifier SAZM
SAZM 011500Z 36007KT 310V050 CAVOK 20/08 Q1022 RMK PP///
From batch tds/metars/production/2022/10/1/h15_m21_metars.cache.csv.gz
Observed at (about 15 hours ago)
Identifier SAZM
SAZM 011400Z 32010KT CAVOK 18/11 Q1022 RMK PP///
From batch tds/metars/production/2022/10/1/h14_m22_metars.cache.csv.gz
Observed at (about 16 hours ago)
Identifier SAZM
SAZM 011300Z 32010KT CAVOK 15/12 Q1022 RMK PP///
From batch tds/metars/production/2022/10/1/h13_m21_metars.cache.csv.gz
Observed at (about 17 hours ago)
Identifier SAZM
SAZM 011200Z 32009KT CAVOK 13/12 Q1022 RMK PP///
From batch tds/metars/production/2022/10/1/h12_m23_metars.cache.csv.gz
Observed at (about 18 hours ago)
Identifier SAZM
SAZM 011100Z 31006KT CAVOK 10/10 Q1022 RMK PP///
From batch tds/metars/production/2022/10/1/h11_m19_metars.cache.csv.gz
Observed at (about 19 hours ago)
Identifier SAZM
SAZM 011000Z 31004KT CAVOK 06/06 Q1021 RNMK PP///
From batch tds/metars/production/2022/10/1/h10_m25_metars.cache.csv.gz
Observed at (about 20 hours ago)
Identifier SAZM
SAZM 010900Z 30004KT CAVOK 07/07 Q1021 RMK PP///
From batch tds/metars/production/2022/10/1/h09_m19_metars.cache.csv.gz
Observed at (about 21 hours ago)
Identifier SAZM
SAZM 010800Z 30005KT CAVOK 07/07 Q1021 RMK PP///
From batch tds/metars/production/2022/10/1/h08_m29_metars.cache.csv.gz
Observed at (about 22 hours ago)
Identifier SAZM
SAZM 010700Z 29005KT CAVOK 06/06 Q1021 RMK PP///
From batch tds/metars/production/2022/10/1/h07_m29_metars.cache.csv.gz
Observed at (about 23 hours ago)
Identifier SAZM
SAZM 302300Z 05010KT CAVOK 13/11 Q1022 RMK PP///
From batch tds/metars/production/2022/9/30/h23_m26_metars.cache.csv.gz
Observed at (1 day ago)
Identifier SAZM
SAZM 302200Z 07010KT CAVOK 13/11 Q1022 RMK PP///
From batch tds/metars/production/2022/9/30/h22_m28_metars.cache.csv.gz
Observed at (1 day ago)
Identifier SAZM
SAZM 302100Z 07011KT CAVOK 15/10 Q1022 RMK PP///
From batch tds/metars/production/2022/9/30/h21_m28_metars.cache.csv.gz
Observed at (1 day ago)
Identifier SAZM
SAZM 302000Z 07012KT CAVOK 16/10 Q1022 RMK PP///
From batch tds/metars/production/2022/9/30/h20_m24_metars.cache.csv.gz
Observed at (1 day ago)
Identifier SAZM
SAZM 301900Z 07012KT CAVOK 16/10 Q1022 RMK PP///
From batch tds/metars/production/2022/9/30/h19_m27_metars.cache.csv.gz
Observed at (1 day ago)
Identifier SAZM
SAZM 301200Z 02009KT CAVOK 13/08 Q1025 RMK PP///
From batch tds/metars/production/2022/9/30/h12_m28_metars.cache.csv.gz
Observed at (2 days ago)
Identifier SAZM
SAZM 301100Z 00000KT CAVOK 08/06 Q1025 RMK PP///
From batch tds/metars/production/2022/9/30/h11_m29_metars.cache.csv.gz
Observed at (2 days ago)
Identifier SAZM
SAZM 301000Z 00000KT CAVOK 04/04 Q1025 RMK PP///
From batch tds/metars/production/2022/9/30/h10_m20_metars.cache.csv.gz
Observed at (2 days ago)
Identifier SAZM
SAZM 300900Z 34003KT CAVOK 03/02 Q1025 RMK PP///
From batch tds/metars/production/2022/9/30/h09_m28_metars.cache.csv.gz
Observed at (2 days ago)
Identifier SAZM
SAZM 300800Z 32004KT CAVOK 03/02 Q1025 RMK PP///
From batch tds/metars/production/2022/9/30/h08_m21_metars.cache.csv.gz
Observed at (2 days ago)
Identifier SAZM
SAZM 300700Z 27004KT CAVOK 03/03 Q1025 RMK PP///
From batch tds/metars/production/2022/9/30/h07_m29_metars.cache.csv.gz
Observed at (2 days ago)
Identifier SAZM
SAZM 300600Z 00000KT CAVOK 05/03 Q1025 RMK PP///
From batch tds/metars/production/2022/9/30/h06_m21_metars.cache.csv.gz
Observed at (2 days ago)
Identifier SAZM
SAZM 300500Z 00000KT CAVOK 07/04 Q1026 RMK PP///
From batch tds/metars/production/2022/9/30/h05_m23_metars.cache.csv.gz
Observed at (2 days ago)
Identifier SAZM
SAZM 300400Z 05006KT CAVOK 07/05 Q1026 RMK PP///
From batch tds/metars/production/2022/9/30/h04_m20_metars.cache.csv.gz
Observed at (2 days ago)
Identifier SAZM
SAZM 300300Z 36007KT CAVOK 08/05 Q1027 RMK PP///
From batch tds/metars/production/2022/9/30/h03_m19_metars.cache.csv.gz
Observed at (2 days ago)
Identifier SAZM
talk